createdAt,value
2023-02-11T00:03:45.740Z,46.20
2023-02-11T00:08:48.784Z,45.70
2023-02-11T00:13:51.971Z,43.60
2023-02-11T00:18:55.063Z,42.90
2023-02-11T00:23:59.865Z,42.60
2023-02-11T00:29:03.220Z,41.70
2023-02-11T00:34:06.134Z,41.40
2023-02-11T00:39:10.126Z,43.10
2023-02-11T00:44:13.044Z,41.20
2023-02-11T00:49:16.074Z,35.20
2023-02-11T00:54:19.034Z,37.60
2023-02-11T00:59:21.919Z,37.30
2023-02-11T01:04:24.819Z,37.30
2023-02-11T01:09:27.875Z,36.90
2023-02-11T01:14:30.757Z,36.90
2023-02-11T01:19:33.802Z,37.90
2023-02-11T01:24:36.778Z,36.80
2023-02-11T01:29:39.718Z,32.60
2023-02-11T01:34:42.763Z,34.80
2023-02-11T01:39:45.728Z,35.10
2023-02-11T01:44:52.977Z,32.70
2023-02-11T01:49:59.256Z,32.10
2023-02-11T01:55:30.832Z,35.10
2023-02-11T02:00:36.800Z,34.30
2023-02-11T02:06:07.626Z,27.30
2023-02-11T02:11:10.758Z,30.90
2023-02-11T02:16:16.386Z,29.40
2023-02-11T02:21:38.349Z,29.40
2023-02-11T02:27:39.506Z,31.90
2023-02-11T02:33:16.714Z,28.60
2023-02-11T02:39:04.347Z,31.20
2023-02-11T02:44:07.860Z,27.50
2023-02-11T02:49:14.510Z,28.50
2023-02-11T02:54:36.014Z,27.50
2023-02-11T03:00:07.803Z,26.80
2023-02-11T03:05:37.338Z,29.60
2023-02-11T03:10:49.750Z,24.80
2023-02-11T03:15:55.278Z,28.00
2023-02-11T03:20:58.719Z,28.00
2023-02-11T03:26:30.818Z,29.40
2023-02-11T03:32:07.729Z,23.30
2023-02-11T03:37:16.575Z,25.80
2023-02-11T03:42:19.982Z,27.30
2023-02-11T03:47:24.955Z,29.30
2023-02-11T03:52:28.051Z,25.70
2023-02-11T03:57:31.277Z,23.30
2023-02-11T04:02:35.981Z,25.00
2023-02-11T04:07:38.945Z,30.70
2023-02-11T04:13:01.842Z,26.60
2023-02-11T04:18:04.884Z,24.10
2023-02-11T04:23:08.011Z,31.20
2023-02-11T04:28:10.919Z,29.10
2023-02-11T04:33:13.832Z,28.10
2023-02-11T04:38:16.940Z,28.70
2023-02-11T04:43:19.799Z,28.30
2023-02-11T04:48:22.788Z,31.20
2023-02-11T04:53:25.815Z,31.80
2023-02-11T04:58:28.798Z,29.50
2023-02-11T05:03:31.732Z,32.90
2023-02-11T05:08:34.701Z,32.00
2023-02-11T05:13:37.667Z,35.90
2023-02-11T05:18:41.935Z,33.70
2023-02-11T05:23:45.361Z,32.20
2023-02-11T05:28:48.338Z,33.60
2023-02-11T05:33:51.220Z,35.00
2023-02-11T05:38:54.464Z,34.10
2023-02-11T05:43:57.378Z,34.30
2023-02-11T05:49:00.257Z,28.60
2023-02-11T05:54:03.839Z,31.40
2023-02-11T05:59:06.838Z,33.30
2023-02-11T06:04:09.702Z,31.50
2023-02-11T06:09:12.663Z,29.80
2023-02-11T06:14:15.611Z,34.30
2023-02-11T06:19:20.091Z,27.20
2023-02-11T06:24:47.788Z,35.20
2023-02-11T06:29:48.209Z,36.40
2023-02-11T06:34:51.120Z,37.60
2023-02-11T06:39:53.977Z,33.90
2023-02-11T06:44:56.861Z,34.20
2023-02-11T06:49:59.786Z,38.40
2023-02-11T06:55:02.736Z,38.90
2023-02-11T07:00:06.434Z,37.90
2023-02-11T07:05:09.669Z,40.80
2023-02-11T07:10:12.722Z,37.20
2023-02-11T07:15:15.885Z,37.20
2023-02-11T07:20:19.016Z,39.30
2023-02-11T07:25:21.892Z,35.10
2023-02-11T07:30:24.759Z,39.70
2023-02-11T07:35:27.801Z,46.10
2023-02-11T07:40:31.759Z,43.40
2023-02-11T07:45:34.626Z,44.30
2023-02-11T07:50:37.470Z,50.10
2023-02-11T07:55:40.506Z,42.20
2023-02-11T08:00:43.675Z,45.20
2023-02-11T08:05:46.574Z,46.30
2023-02-11T08:10:49.655Z,46.80
2023-02-11T08:15:53.041Z,44.90
2023-02-11T08:20:56.175Z,42.20
2023-02-11T08:26:04.531Z,41.80
2023-02-11T08:31:40.673Z,46.10
2023-02-11T08:36:45.072Z,50.20
2023-02-11T08:41:50.083Z,47.30
2023-02-11T08:46:53.173Z,52.30
2023-02-11T08:51:56.573Z,47.20
2023-02-11T08:57:00.796Z,50.40
2023-02-11T09:02:03.765Z,44.30
2023-02-11T09:07:08.762Z,48.20
2023-02-11T09:12:11.610Z,48.00
2023-02-11T09:17:14.569Z,48.70
2023-02-11T09:22:17.462Z,47.80
2023-02-11T09:27:20.321Z,44.90
2023-02-11T09:32:23.316Z,44.50
2023-02-11T09:37:26.239Z,42.50
2023-02-11T09:42:38.607Z,45.70
2023-02-11T09:48:12.320Z,43.70
2023-02-11T09:53:27.883Z,42.50
2023-02-11T09:58:35.713Z,46.00
2023-02-11T10:03:47.624Z,43.20
2023-02-11T10:09:09.733Z,40.50
2023-02-11T10:15:03.899Z,44.00
2023-02-11T10:21:09.712Z,43.60
2023-02-11T10:26:15.557Z,45.60
2023-02-11T10:31:38.582Z,42.10
2023-02-11T10:36:44.616Z,42.60
2023-02-11T10:42:10.943Z,40.60
2023-02-11T10:47:20.540Z,40.80
2023-02-11T10:52:28.370Z,36.20
2023-02-11T10:57:42.814Z,37.00
2023-02-11T11:02:47.147Z,39.90
2023-02-11T11:07:59.156Z,42.20
2023-02-11T11:13:02.140Z,41.70
2023-02-11T11:18:22.409Z,41.10
2023-02-11T11:23:26.083Z,49.50
2023-02-11T11:28:29.932Z,45.10
2023-02-11T11:33:34.446Z,49.00
2023-02-11T11:38:44.450Z,49.40
2023-02-11T11:43:58.149Z,51.70
2023-02-11T11:49:29.338Z,55.50
2023-02-11T11:54:32.667Z,53.50
2023-02-11T11:59:37.204Z,61.80
2023-02-11T12:04:54.192Z,54.50
2023-02-11T12:10:34.488Z,57.80
2023-02-11T12:16:13.941Z,55.80
2023-02-11T12:21:55.205Z,51.30
2023-02-11T12:28:08.165Z,51.40
2023-02-11T12:34:07.775Z,51.60
2023-02-11T12:39:41.627Z,47.00
2023-02-11T12:44:50.295Z,46.80
2023-02-11T12:55:27.185Z,48.40
2023-02-11T13:00:51.181Z,51.40
2023-02-11T13:05:58.171Z,52.40
2023-02-11T13:11:08.479Z,48.60
2023-02-11T13:16:50.944Z,47.50
2023-02-11T13:22:33.853Z,46.10
2023-02-11T13:27:44.690Z,48.10
2023-02-11T13:33:19.362Z,52.70
2023-02-11T13:38:24.791Z,52.70
2023-02-11T13:43:28.928Z,55.00
2023-02-11T13:48:59.638Z,46.30
2023-02-11T13:54:02.537Z,46.50
2023-02-11T13:59:25.740Z,54.10
2023-02-11T14:04:49.070Z,57.30
2023-02-11T14:09:57.071Z,56.70
2023-02-11T14:15:07.829Z,55.40
2023-02-11T14:20:42.045Z,54.80
2023-02-11T14:25:45.088Z,57.40
2023-02-11T14:31:04.573Z,57.00
2023-02-11T14:36:14.021Z,53.70
2023-02-11T14:41:29.887Z,55.70
2023-02-11T14:46:33.238Z,50.50
2023-02-11T14:51:41.900Z,54.50
2023-02-11T14:56:46.912Z,51.10
2023-02-11T15:01:51.365Z,46.70
2023-02-11T15:06:54.377Z,47.60
2023-02-11T15:11:57.385Z,48.30
2023-02-11T15:17:03.749Z,49.20
2023-02-11T15:22:30.341Z,45.50
2023-02-11T15:27:49.045Z,43.10
2023-02-11T15:32:59.778Z,44.60
2023-02-11T15:38:02.791Z,46.80
2023-02-11T15:43:11.276Z,44.90
2023-02-11T15:48:20.484Z,41.90
2023-02-11T15:53:32.549Z,42.10
2023-02-11T15:58:39.676Z,46.70
2023-02-11T16:03:42.730Z,42.30
2023-02-11T16:09:00.336Z,40.30
2023-02-11T16:14:23.275Z,40.20
2023-02-11T16:19:27.865Z,38.80
2023-02-11T16:24:35.179Z,39.10
2023-02-11T16:29:38.213Z,39.90
2023-02-11T16:34:41.258Z,36.60
2023-02-11T16:39:44.438Z,36.60
2023-02-11T16:44:47.284Z,36.70
2023-02-11T16:49:50.317Z,33.20
2023-02-11T16:54:53.857Z,33.20
2023-02-11T16:59:57.535Z,32.60
2023-02-11T17:05:02.539Z,30.80
2023-02-11T17:10:21.819Z,34.50
2023-02-11T17:15:25.033Z,31.60
2023-02-11T17:20:28.550Z,33.00
2023-02-11T17:25:31.607Z,32.60
2023-02-11T17:30:34.677Z,31.30
2023-02-11T17:35:40.655Z,26.70
2023-02-11T17:40:43.569Z,33.60
2023-02-11T17:45:46.562Z,28.70
2023-02-11T17:50:49.497Z,30.80
2023-02-11T17:55:52.721Z,29.20
2023-02-11T18:00:58.988Z,28.60
2023-02-11T18:06:04.313Z,26.50
2023-02-11T18:11:10.519Z,27.80
2023-02-11T18:16:15.994Z,26.50
2023-02-11T18:21:20.483Z,27.50
2023-02-11T18:26:26.269Z,29.00
2023-02-11T18:31:29.470Z,28.30
2023-02-11T18:36:32.400Z,25.80
2023-02-11T18:41:35.318Z,24.60
2023-02-11T18:46:38.161Z,22.80
2023-02-11T18:51:41.078Z,23.00
2023-02-11T18:56:44.038Z,21.20
2023-02-11T19:01:47.094Z,23.10
2023-02-11T19:06:50.347Z,21.70
2023-02-11T19:11:57.989Z,26.00
2023-02-11T19:17:04.054Z,22.80
2023-02-11T19:22:10.068Z,20.40
2023-02-11T19:27:13.537Z,17.90
2023-02-11T19:32:17.594Z,18.80
2023-02-11T19:37:20.554Z,19.00
2023-02-11T19:42:25.316Z,22.10
2023-02-11T19:47:31.372Z,18.40
2023-02-11T19:52:37.020Z,19.30
2023-02-11T19:57:39.965Z,18.50
2023-02-11T20:02:43.031Z,19.70
2023-02-11T20:07:45.995Z,17.10
2023-02-11T20:12:49.086Z,20.30
2023-02-11T20:17:51.963Z,18.80
2023-02-11T20:22:54.870Z,16.60
2023-02-11T20:27:57.908Z,16.10
2023-02-11T20:33:00.749Z,18.70
2023-02-11T20:38:04.242Z,17.60
2023-02-11T20:43:07.148Z,18.30
2023-02-11T20:48:10.110Z,16.40
2023-02-11T20:53:13.254Z,18.60
2023-02-11T20:58:16.164Z,19.90
2023-02-11T21:03:19.019Z,25.30
2023-02-11T21:08:21.848Z,21.30
2023-02-11T21:13:25.209Z,15.90
2023-02-11T21:18:28.209Z,20.80
2023-02-11T21:23:31.147Z,19.40
2023-02-11T21:28:34.432Z,9.10
2023-02-11T21:33:38.009Z,7.20
2023-02-11T21:38:41.465Z,6.80
2023-02-11T21:43:44.809Z,9.50
2023-02-11T21:48:48.068Z,5.30
2023-02-11T21:54:01.559Z,6.10
2023-02-11T21:59:04.613Z,6.30
2023-02-11T22:04:07.535Z,4.30
2023-02-11T22:09:11.132Z,5.30
2023-02-11T22:14:14.004Z,4.40
2023-02-11T22:19:17.362Z,2.90
2023-02-11T22:24:20.284Z,3.80
2023-02-11T22:29:23.147Z,5.00
2023-02-11T22:34:26.082Z,4.60
2023-02-11T22:39:31.588Z,4.50
2023-02-11T22:44:34.722Z,6.00
2023-02-11T22:49:39.640Z,5.60
2023-02-11T22:54:42.720Z,4.90
2023-02-11T22:59:48.046Z,4.50
2023-02-11T23:04:50.971Z,4.10
2023-02-11T23:09:54.251Z,4.30
2023-02-11T23:14:57.225Z,2.40
2023-02-11T23:20:00.442Z,2.60
2023-02-11T23:25:03.363Z,3.50
2023-02-11T23:30:07.600Z,4.90
2023-02-11T23:35:10.617Z,4.00
2023-02-11T23:40:14.472Z,3.60
2023-02-11T23:45:17.578Z,3.40
2023-02-11T23:50:21.304Z,2.90
2023-02-11T23:55:24.225Z,2.70
